Time;durP1;ratioP1;P1;durP2;ratioP2;P2;SDS_P1;SDS_P2;PMS_P1;PMS_P2;Temp;Humidity;BMP_temperature;BMP_pressure;BME280_temperature;BME280_humidity;BME280_pressure;Samples;Min_cycle;Max_cycle;Signal;HPM_P1;HPM_P2
2022/09/01 00:02:14;;;;;;;2.72;2.45;;;;;;;28.24;39.06;101287.85;1423059;97;21138;-55
2022/09/01 00:04:44;;;;;;;2.60;2.37;;;;;;;28.22;39.03;101291.16;1443023;99;21166;-55
2022/09/01 00:07:11;;;;;;;4.78;2.30;;;;;;;28.20;38.62;101286.42;1443683;99;21149;-55
2022/09/01 00:09:39;;;;;;;3.05;2.35;;;;;;;28.18;39.23;101289.72;1443675;99;21166;-55
2022/09/01 00:12:08;;;;;;;2.58;2.37;;;;;;;28.17;39.44;101295.56;1442572;97;21182;-55
2022/09/01 00:14:38;;;;;;;3.77;2.90;;;;;;;28.15;39.82;101291.34;1441776;97;21157;-55
2022/09/01 00:17:06;;;;;;;3.17;2.52;;;;;;;28.12;40.36;101288.44;1429119;100;21610;-55
2022/09/01 00:19:35;;;;;;;2.72;2.52;;;;;;;28.08;40.33;101288.34;1437712;99;21167;-56
2022/09/01 00:22:02;;;;;;;3.12;2.62;;;;;;;28.05;40.26;101291.27;1475713;96;21078;-55
2022/09/01 00:24:29;;;;;;;3.87;2.50;;;;;;;28.04;40.36;101284.72;1457264;98;21205;-55
2022/09/01 00:26:56;;;;;;;3.20;2.92;;;;;;;28.03;40.76;101285.69;1479112;95;21807;-55
2022/09/01 00:29:23;;;;;;;5.87;3.05;;;;;;;28.01;41.05;101284.97;1483225;96;21112;-56
2022/09/01 00:31:51;;;;;;;3.05;2.75;;;;;;;28.02;41.20;101288.02;1482228;96;21111;-55
2022/09/01 00:34:18;;;;;;;4.95;3.35;;;;;;;27.98;41.38;101286.59;1481312;95;21126;-55
2022/09/01 00:36:46;;;;;;;3.55;2.83;;;;;;;27.96;41.38;101293.91;1482583;96;21158;-56
2022/09/01 00:39:13;;;;;;;4.25;2.90;;;;;;;27.94;41.32;101293.16;1480329;96;21171;-56
2022/09/01 00:41:42;;;;;;;3.95;2.83;;;;;;;27.94;41.14;101293.16;1484538;96;21082;-55
2022/09/01 00:44:14;;;;;;;3.17;2.87;;;;;;;27.92;41.08;101287.09;1489242;92;21622;-55
2022/09/01 00:46:46;;;;;;;3.55;3.17;;;;;;;27.91;41.04;101293.40;1507845;93;21077;-55
2022/09/01 00:49:38;;;;;;;3.75;3.00;;;;;;;27.87;41.06;101287.47;1496763;93;21110;-55
2022/09/01 00:52:40;;;;;;;4.40;3.10;;;;;;;27.84;41.03;101284.22;1503063;93;21577;-55
2022/09/01 00:55:11;;;;;;;;;;;;;;;27.76;41.16;101276.01;1503284;93;21653;-55
2022/09/01 00:57:38;;;;;;;3.13;2.77;;;;;;;27.65;41.43;101276.06;1495654;93;20140;-55
2022/09/01 01:00:22;;;;;;;3.22;2.92;;;;;;;27.58;41.63;101277.55;1504769;93;21223;-55
2022/09/01 01:02:54;;;;;;;3.25;2.98;;;;;;;27.50;41.82;101269.33;1479294;95;21115;-55
2022/09/01 01:05:20;;;;;;;4.75;3.08;;;;;;;27.39;42.33;101267.06;1494608;92;21153;-55
2022/09/01 01:07:47;;;;;;;4.97;3.17;;;;;;;27.34;42.27;101267.95;1547732;91;21097;-55
2022/09/01 01:10:17;;;;;;;3.22;2.92;;;;;;;27.30;42.80;101268.30;1521738;93;21094;-55
2022/09/01 01:12:44;;;;;;;3.75;3.35;;;;;;;27.23;43.21;101267.95;1541989;92;21550;-55
2022/09/01 01:15:11;;;;;;;4.92;3.37;;;;;;;27.19;43.91;101267.85;1546525;91;21081;-55
2022/09/01 01:17:38;;;;;;;2.70;2.50;;;;;;;27.16;44.44;101276.11;1546373;92;21130;-55
2022/09/01 01:23:11;;;;;;;3.35;3.02;;;;;;;27.05;44.94;101282.84;1546680;92;21619;-55
2022/09/01 01:25:54;;;;;;;3.75;3.35;;;;;;;26.97;45.70;101284.44;1542590;91;21140;-55
2022/09/01 01:28:27;;;;;;;3.80;2.90;;;;;;;26.90;46.15;101281.89;1514202;93;21025;-54
2022/09/01 01:30:58;;;;;;;5.55;2.50;;;;;;;26.83;46.01;101274.86;1483559;95;21174;-55
2022/09/01 01:33:30;;;;;;;2.87;2.67;;;;;;;26.83;44.80;101274.03;1478556;96;21081;-55
2022/09/01 01:35:57;;;;;;;4.60;2.90;;;;;;;26.83;44.64;101277.53;1454617;99;21181;-54
2022/09/01 01:38:26;;;;;;;3.75;2.50;;;;;;;26.84;44.58;101277.91;1478282;97;21177;-55
2022/09/01 01:40:55;;;;;;;2.70;2.50;;;;;;;26.85;44.05;101280.95;1478483;97;21048;-55
2022/09/01 01:43:23;;;;;;;3.20;2.80;;;;;;;26.86;44.12;101273.29;1485235;96;21167;-55
2022/09/01 01:45:52;;;;;;;3.00;2.80;;;;;;;26.89;44.28;101282.41;1505247;94;21660;-55
2022/09/01 01:48:22;;;;;;;3.45;2.77;;;;;;;26.89;44.50;101278.39;1521674;94;21582;-55
2022/09/01 01:50:51;;;;;;;5.37;2.72;;;;;;;26.89;44.23;101279.73;1521634;94;21117;-55
2022/09/01 01:53:18;;;;;;;4.17;3.17;;;;;;;26.89;44.11;101282.41;1494494;96;21073;-55
2022/09/01 01:55:48;;;;;;;4.85;2.98;;;;;;;26.86;44.06;101277.30;1494701;96;21073;-55
2022/09/01 01:58:18;;;;;;;2.87;2.60;;;;;;;26.85;44.42;101286.30;1494603;96;21097;-55
2022/09/01 02:00:47;;;;;;;3.07;2.77;;;;;;;26.84;44.48;101279.24;1556876;91;21085;-55
2022/09/01 02:03:17;;;;;;;3.83;2.55;;;;;;;26.83;44.60;101276.19;1556842;91;21140;-55
2022/09/01 02:05:46;;;;;;;3.05;2.60;;;;;;;26.82;44.88;101275.84;1563645;91;21583;-55
2022/09/01 02:08:14;;;;;;;2.83;2.58;;;;;;;26.79;44.58;101273.41;1561610;91;21106;-54
2022/09/01 02:10:45;;;;;;;2.83;2.52;;;;;;;26.74;44.69;101267.61;1561623;91;21524;-54
2022/09/01 02:13:17;;;;;;;4.42;2.95;;;;;;;26.70;45.02;101278.15;1538952;92;21610;-55
2022/09/01 02:15:48;;;;;;;5.10;2.87;;;;;;;26.67;44.97;101270.87;1544843;92;21056;-55
2022/09/01 02:18:22;;;;;;;4.95;2.50;;;;;;;26.61;44.82;101273.05;1560977;91;21612;-55
2022/09/01 02:20:50;;;;;;;6.00;3.10;;;;;;;26.59;45.08;101272.81;1571268;91;21632;-55
2022/09/01 02:23:22;;;;;;;3.58;2.72;;;;;;;26.57;45.27;101273.42;1571188;91;21081;-55
2022/09/01 02:25:49;;;;;;;3.05;2.70;;;;;;;26.51;45.17;101269.43;1564498;91;21136;-55
2022/09/01 02:28:18;;;;;;;3.05;2.72;;;;;;;26.48;45.16;101270.17;1553823;92;21064;-55
2022/09/01 02:30:50;;;;;;;3.67;2.83;;;;;;;26.43;45.33;101268.34;1554611;92;21093;-56
2022/09/01 02:33:18;;;;;;;3.65;2.37;;;;;;;26.38;44.88;101267.36;1529802;94;21139;-55
2022/09/01 02:35:54;;;;;;;3.47;2.62;;;;;;;26.33;45.28;101248.70;1554783;91;21094;-55
2022/09/01 02:38:28;;;;;;;4.85;2.50;;;;;;;26.30;45.19;101257.78;1576774;91;21081;-55
2022/09/01 02:40:52;;;;;;;3.90;2.52;;;;;;;26.27;44.86;101253.19;1542067;93;21120;-55
2022/09/01 02:43:20;;;;;;;2.85;2.58;;;;;;;26.24;44.92;101255.61;1541786;93;21040;-56
2022/09/01 02:45:53;;;;;;;2.87;2.50;;;;;;;26.21;44.85;101247.00;1542181;93;21012;-55
2022/09/01 02:48:21;;;;;;;3.55;2.45;;;;;;;26.19;44.95;101242.28;1539367;93;21128;-55
2022/09/01 02:50:46;;;;;;;2.98;2.45;;;;;;;26.18;44.90;101239.23;1539689;93;21131;-55
2022/09/01 02:53:14;;;;;;;3.70;2.72;;;;;;;26.17;45.03;101241.05;1517514;94;21109;-56
2022/09/01 02:55:42;;;;;;;2.80;2.60;;;;;;;26.17;45.07;101234.88;1541820;93;21132;-55
2022/09/01 02:58:15;;;;;;;2.33;2.12;;;;;;;26.17;44.69;101233.55;1542047;93;21554;-55
2022/09/01 03:00:38;;;;;;;4.92;2.50;;;;;;;26.14;44.65;101235.97;1539277;93;21063;-55
2022/09/01 03:03:06;;;;;;;2.77;2.52;;;;;;;26.14;44.51;101232.44;1541894;93;21123;-55
2022/09/01 03:05:34;;;;;;;4.05;2.90;;;;;;;26.11;44.67;101236.70;1532083;93;21555;-56
2022/09/01 03:08:09;;;;;;;2.83;2.60;;;;;;;26.10;44.68;101238.98;1538658;93;21142;-55
2022/09/01 03:10:40;;;;;;;3.27;2.87;;;;;;;26.10;44.63;101238.52;1567361;90;21070;-56
2022/09/01 03:13:14;;;;;;;3.87;2.60;;;;;;;26.07;44.78;101235.21;1587556;90;21112;-55
2022/09/01 03:15:41;;;;;;;4.28;3.02;;;;;;;26.06;45.02;101237.50;1584484;90;21119;-55
2022/09/01 03:18:10;;;;;;;3.60;2.95;;;;;;;26.02;45.10;101238.71;1590147;90;21592;-56
2022/09/01 03:20:42;;;;;;;2.98;2.58;;;;;;;25.99;45.16;101229.63;1580938;90;21612;-55
2022/09/01 03:23:11;;;;;;;4.12;2.85;;;;;;;26.00;45.29;101235.31;1586572;90;21564;-55
2022/09/01 03:25:38;;;;;;;3.12;2.67;;;;;;;25.98;45.31;101230.59;1586236;90;21153;-55
2022/09/01 03:28:08;;;;;;;2.95;2.47;;;;;;;25.96;45.11;101223.19;1590287;89;21627;-55
2022/09/01 03:33:06;;;;;;;3.45;2.75;;;;;;;25.89;45.08;101224.63;1579809;91;21522;-55
2022/09/01 03:35:32;;;;;;;3.17;2.50;;;;;;;25.87;45.66;101233.23;1577464;91;21562;-55
2022/09/01 03:38:00;;;;;;;6.05;2.85;;;;;;;25.87;45.66;101233.23;1582969;91;21058;-56
2022/09/01 03:40:31;;;;;;;3.30;3.00;;;;;;;25.86;45.69;101230.22;1582969;90;21063;-55
2022/09/01 03:42:59;;;;;;;;;;;;;;;25.86;45.84;101239.07;1549001;92;21107;-56
2022/09/01 03:45:28;;;;;;;4.30;2.80;;;;;;;25.86;46.00;101240.87;1473754;96;20513;-55
2022/09/01 03:47:55;;;;;;;3.77;3.10;;;;;;;25.84;45.74;101252.50;1478522;96;21160;-55
2022/09/01 03:50:23;;;;;;;3.55;2.90;;;;;;;25.80;46.02;101249.70;1479454;96;21614;-55
2022/09/01 03:52:57;;;;;;;3.30;3.00;;;;;;;25.82;46.08;101261.61;1476968;96;21116;-55
2022/09/01 03:55:29;;;;;;;3.22;2.90;;;;;;;25.83;46.28;101275.28;1480884;96;21540;-56
2022/09/01 03:58:02;;;;;;;3.40;3.10;;;;;;;25.83;46.03;101269.48;1480025;96;21103;-56
2022/09/01 04:00:31;;;;;;;5.17;2.75;;;;;;;25.84;45.55;101275.66;1493448;96;21129;-56
2022/09/01 04:02:59;;;;;;;3.85;3.00;;;;;;;25.81;45.46;101263.41;1494383;96;21098;-56
2022/09/01 04:05:27;;;;;;;2.95;2.65;;;;;;;25.83;45.73;101266.81;1494144;96;21078;-56
2022/09/01 04:07:57;;;;;;;4.00;3.20;;;;;;;25.86;45.67;101271.54;1470388;96;21189;-56
2022/09/01 04:10:24;;;;;;;5.20;3.05;;;;;;;25.87;45.77;101269.22;1494064;96;21171;-56
2022/09/01 04:12:55;;;;;;;3.87;3.00;;;;;;;25.87;45.45;101268.75;1494302;95;21067;-56
2022/09/01 04:15:20;;;;;;;4.70;3.50;;;;;;;25.87;45.80;101269.22;1491601;96;21083;-56
2022/09/01 04:20:46;;;;;;;3.45;3.15;;;;;;;25.89;45.78;101265.48;1493797;96;21187;-56
2022/09/01 04:23:09;;;;;;;4.00;3.55;;;;;;;25.88;45.42;101270.94;1495236;96;21114;-56
2022/09/01 04:25:32;;;;;;;4.95;3.52;;;;;;;25.88;45.62;101278.94;1494212;95;21102;-55
2022/09/01 04:27:59;;;;;;;5.97;3.55;;;;;;;25.88;45.85;101285.13;1516773;94;21121;-56
2022/09/01 04:30:30;;;;;;;3.60;3.25;;;;;;;25.88;45.88;101283.80;1520214;94;21098;-56
2022/09/01 04:32:55;;;;;;;6.90;3.58;;;;;;;25.89;46.03;101283.28;1508563;95;21059;-56
2022/09/01 04:35:31;;;;;;;4.33;3.70;;;;;;;25.89;45.80;101283.28;1518540;94;21089;-56
2022/09/01 04:37:52;;;;;;;4.87;2.92;;;;;;;25.91;45.89;101292.02;1515764;94;21066;-56
2022/09/01 04:40:22;;;;;;;3.80;3.30;;;;;;;25.91;45.73;101285.34;1523516;94;21090;-56
2022/09/01 04:42:48;;;;;;;4.30;2.80;;;;;;;25.94;45.80;101286.46;1493616;96;21121;-56
2022/09/01 04:45:18;;;;;;;4.87;3.22;;;;;;;25.96;45.94;101281.86;1491182;96;21683;-56
2022/09/01 04:47:46;;;;;;;3.77;2.98;;;;;;;25.97;45.84;101282.20;1496984;94;21081;-56
2022/09/01 04:50:17;;;;;;;4.08;3.37;;;;;;;25.98;45.76;101278.11;1533660;93;21047;-56
2022/09/01 04:52:46;;;;;;;4.00;3.62;;;;;;;25.99;45.36;101286.46;1529699;93;21109;-56
2022/09/01 04:55:23;;;;;;;3.50;3.20;;;;;;;25.99;45.37;101284.30;1529015;93;21083;-56
2022/09/01 04:57:49;;;;;;;4.33;3.77;;;;;;;25.99;45.17;101281.64;1564234;90;21076;-56
2022/09/01 05:00:22;;;;;;;3.80;3.40;;;;;;;26.00;45.29;101296.66;1575569;90;21042;-55
2022/09/01 05:03:00;;;;;;;3.62;3.20;;;;;;;26.00;45.15;101297.51;1576022;90;21587;-56
2022/09/01 05:05:26;;;;;;;5.20;3.22;;;;;;;26.01;45.17;101301.03;1531301;93;21129;-56
2022/09/01 05:07:54;;;;;;;4.47;3.30;;;;;;;26.01;44.91;101297.86;1539215;93;21109;-56
2022/09/01 05:10:27;;;;;;;4.00;3.60;;;;;;;25.99;45.26;101293.64;1538350;93;21142;-56
2022/09/01 05:12:56;;;;;;;7.10;3.80;;;;;;;25.98;45.37;101294.59;1541432;92;21498;-56
2022/09/01 05:15:23;;;;;;;3.60;2.92;;;;;;;25.99;45.46;101293.64;1551289;92;21074;-56
2022/09/01 05:17:51;;;;;;;7.55;3.15;;;;;;;26.01;45.48;101294.37;1551852;92;21541;-55
2022/09/01 05:20:19;;;;;;;5.15;3.42;;;;;;;26.06;45.21;101293.51;1552956;92;21566;-56
2022/09/01 05:22:46;;;;;;;5.92;3.50;;;;;;;26.06;45.21;101293.51;1552475;92;21074;-56
2022/09/01 05:25:13;;;;;;;5.42;3.65;;;;;;;26.07;45.30;101296.55;1551122;92;21073;-56
2022/09/01 05:27:48;;;;;;;4.58;3.42;;;;;;;26.07;45.30;101296.55;1496019;95;21078;-55
2022/09/01 05:30:16;;;;;;;4.60;3.60;;;;;;;26.08;45.51;101293.80;1493237;95;21141;-56
2022/09/01 05:32:47;;;;;;;5.05;3.50;;;;;;;26.09;45.52;101293.32;1493481;95;21070;-56
2022/09/01 05:35:12;;;;;;;5.67;3.92;;;;;;;26.10;45.21;101297.66;1493275;95;21122;-57
2022/09/01 05:37:40;;;;;;;5.05;3.50;;;;;;;26.11;45.26;101298.05;1493469;95;21159;-56
2022/09/01 05:40:14;;;;;;;5.78;3.90;;;;;;;26.14;45.43;101300.45;1495204;95;21186;-56
2022/09/01 05:42:39;;;;;;;4.83;3.40;;;;;;;26.16;45.36;101301.19;1490876;95;21175;-56
2022/09/01 05:45:10;;;;;;;6.37;4.08;;;;;;;26.18;45.47;101312.11;1494250;95;21126;-56
2022/09/01 05:47:38;;;;;;;4.20;3.55;;;;;;;26.23;45.54;101303.76;1493571;95;21105;-56
2022/09/01 05:50:09;;;;;;;5.35;4.20;;;;;;;26.26;45.52;101304.83;1460396;98;21642;-56
2022/09/01 05:52:38;;;;;;;6.25;4.12;;;;;;;26.29;45.36;101300.61;1460426;98;21151;-56
2022/09/01 05:55:07;;;;;;;4.60;3.58;;;;;;;26.34;45.25;101307.74;1460455;97;21645;-56
2022/09/01 05:57:39;;;;;;;4.22;3.58;;;;;;;26.36;44.88;101304.47;1460638;98;21129;-56
2022/09/01 06:00:11;;;;;;;7.20;3.65;;;;;;;26.37;45.30;101300.84;1468236;97;21118;-56
2022/09/01 06:02:41;;;;;;;5.67;4.00;;;;;;;26.38;45.18;101299.86;1515064;92;21126;-56
2022/09/01 06:05:11;;;;;;;4.33;3.37;;;;;;;26.38;45.07;101299.39;1545750;92;21092;-56
2022/09/01 06:07:39;;;;;;;4.95;3.87;;;;;;;26.41;45.02;101298.30;1528914;93;21097;-56
2022/09/01 06:10:08;;;;;;;4.15;3.58;;;;;;;26.43;45.11;101305.70;1530614;93;21120;-56
2022/09/01 06:12:36;;;;;;;5.80;3.72;;;;;;;26.45;45.35;101307.76;1530744;93;21586;-56
2022/09/01 06:15:14;;;;;;;4.33;3.92;;;;;;;26.50;45.37;101317.60;1529034;93;21121;-56
2022/09/01 06:17:33;;;;;;;5.85;3.90;;;;;;;26.51;45.07;101315.28;1528825;93;21062;-57
2022/09/01 06:20:09;;;;;;;6.65;3.47;;;;;;;26.53;45.00;101320.02;1512953;94;21166;-56
2022/09/01 06:22:30;;;;;;;6.60;3.90;;;;;;;26.57;45.01;101313.45;1526737;93;21106;-56
2022/09/01 06:24:58;;;;;;;6.70;4.25;;;;;;;26.61;44.84;101313.58;1531767;93;21091;-56
2022/09/01 06:27:26;;;;;;;4.62;3.92;;;;;;;26.65;44.70;101320.37;1545611;92;21182;-57
2022/09/01 06:29:56;;;;;;;5.78;4.05;;;;;;;26.67;44.87;101325.09;1551656;91;21071;-56
2022/09/01 06:32:24;;;;;;;5.92;3.90;;;;;;;26.72;44.98;101322.95;1548806;92;21044;-57
2022/09/01 06:34:50;;;;;;;4.17;3.65;;;;;;;26.74;44.80;101326.35;1551961;92;21071;-56
2022/09/01 06:37:21;;;;;;;5.50;3.98;;;;;;;26.78;44.68;101329.61;1551733;92;21112;-56
2022/09/01 06:39:46;;;;;;;5.50;4.33;;;;;;;26.80;44.77;101331.20;1551694;91;21576;-57
2022/09/01 06:42:14;;;;;;;5.15;4.08;;;;;;;26.82;44.53;101333.26;1551945;92;21084;-57
2022/09/01 06:44:48;;;;;;;5.62;3.87;;;;;;;26.85;44.68;101327.69;1540742;92;21620;-57
2022/09/01 06:47:15;;;;;;;5.62;4.17;;;;;;;26.89;44.53;101335.81;1552140;91;21088;-56
2022/09/01 06:49:42;;;;;;;7.67;4.33;;;;;;;26.93;44.17;101331.92;1551601;92;21543;-56
2022/09/01 06:52:12;;;;;;;7.05;4.30;;;;;;;26.99;44.32;101326.08;1550065;89;21099;-57
2022/09/01 06:54:42;;;;;;;7.67;3.95;;;;;;;27.06;44.07;101319.25;1601795;88;21055;-57
2022/09/01 06:57:09;;;;;;;4.87;3.65;;;;;;;27.15;43.72;101317.17;1608201;88;21040;-57
2022/09/01 06:59:35;;;;;;;4.60;4.05;;;;;;;27.24;43.64;101315.06;1607706;87;21052;-57
2022/09/01 07:02:05;;;;;;;7.60;3.72;;;;;;;27.34;43.42;101318.73;1610463;88;21095;-57
2022/09/01 07:04:41;;;;;;;5.37;4.08;;;;;;;27.42;43.08;101320.77;1557524;91;21586;-57
2022/09/01 07:07:12;;;;;;;4.17;3.67;;;;;;;27.47;42.82;101317.71;1546630;92;21111;-57
2022/09/01 07:09:57;;;;;;;4.22;3.52;;;;;;;27.53;43.11;101330.56;1558057;92;21650;-56
2022/09/01 07:12:27;;;;;;;9.63;4.07;;;;;;;27.59;42.89;101334.91;1537300;92;21095;-56
2022/09/01 07:14:56;;;;;;;5.45;4.17;;;;;;;27.63;42.72;101332.34;1551129;91;21624;-56
2022/09/01 07:17:25;;;;;;;6.25;3.58;;;;;;;27.68;42.55;101334.61;1547646;92;21629;-57
2022/09/01 07:19:54;;;;;;;7.33;3.85;;;;;;;27.75;42.40;101329.12;1547515;92;21078;-57
2022/09/01 07:22:21;;;;;;;5.97;3.77;;;;;;;27.82;42.22;101328.97;1525083;93;21119;-57
2022/09/01 07:24:56;;;;;;;6.08;3.80;;;;;;;27.92;41.91;101323.20;1549678;92;22230;-57
2022/09/01 07:27:29;;;;;;;3.92;3.52;;;;;;;28.03;41.68;101319.13;1546419;92;21071;-57
2022/09/01 07:29:56;;;;;;;4.65;3.85;;;;;;;28.20;41.53;101318.53;1526872;93;21058;-57
2022/09/01 07:32:22;;;;;;;4.95;3.75;;;;;;;28.35;41.29;101317.22;1578214;90;21568;-56
2022/09/01 07:34:51;;;;;;;7.78;3.98;;;;;;;28.49;40.94;101319.53;1578948;89;21041;-57
2022/09/01 07:37:21;;;;;;;4.30;3.83;;;;;;;28.57;40.58;101323.75;1577561;90;21663;-57
2022/09/01 07:39:46;;;;;;;7.42;4.37;;;;;;;28.62;40.34;101325.55;1577719;90;21136;-57
2022/09/01 07:42:18;;;;;;;6.08;3.65;;;;;;;28.65;40.49;101319.91;1534336;93;21074;-57
2022/09/01 07:47:37;;;;;;;5.03;3.95;;;;;;;28.73;40.32;101306.68;1485704;96;21117;-57
2022/09/01 07:50:07;;;;;;;5.25;3.92;;;;;;;28.77;39.97;101304.59;1461985;97;21165;-57
2022/09/01 07:52:41;;;;;;;7.85;4.00;;;;;;;28.81;39.89;101308.70;1460887;97;21107;-57
2022/09/01 07:55:05;;;;;;;5.92;3.50;;;;;;;28.85;39.87;101318.98;1487802;96;21074;-57
2022/09/01 07:57:32;;;;;;;5.90;4.15;;;;;;;28.91;40.32;101321.11;1489415;96;21093;-57
2022/09/01 08:00:00;;;;;;;5.30;3.72;;;;;;;28.95;40.51;101319.84;1490377;95;21158;-57
2022/09/01 08:02:32;;;;;;;6.00;3.95;;;;;;;29.01;40.77;101308.23;1461084;98;22198;-57
2022/09/01 08:04:59;;;;;;;4.67;3.65;;;;;;;29.06;40.85;101303.33;1440432;100;21076;-57
2022/09/01 08:07:26;;;;;;;4.72;3.87;;;;;;;29.10;40.95;101306.91;1456449;97;21088;-57
2022/09/01 08:09:54;;;;;;;7.15;4.05;;;;;;;29.14;40.77;101302.14;1434383;99;21631;-57
2022/09/01 08:12:22;;;;;;;5.42;3.58;;;;;;;29.18;40.87;101311.63;1434199;100;21100;-57
2022/09/01 08:14:52;;;;;;;5.45;3.90;;;;;;;29.23;40.79;101310.70;1461065;98;21642;-57
2022/09/01 08:17:20;;;;;;;5.00;4.05;;;;;;;29.27;40.83;101306.75;1444177;99;21113;-57
2022/09/01 08:19:47;;;;;;;4.70;4.20;;;;;;;29.32;40.50;101304.51;1444993;99;21097;-57
2022/09/01 08:22:15;;;;;;;5.20;3.92;;;;;;;29.36;40.76;101300.55;1444871;99;21593;-56
2022/09/01 08:24:56;;;;;;;5.40;3.77;;;;;;;29.43;41.10;101303.05;1444997;99;21085;-57
2022/09/01 08:27:23;;;;;;;7.72;4.15;;;;;;;29.47;40.81;101291.87;1440849;99;21172;-57
2022/09/01 08:29:49;;;;;;;5.28;3.60;;;;;;;29.52;40.46;101290.11;1430819;99;21197;-57
2022/09/01 08:32:17;;;;;;;4.45;3.85;;;;;;;29.57;40.32;101294.56;1401453;102;21658;-56
2022/09/01 08:34:44;;;;;;;4.83;3.62;;;;;;;29.61;40.50;101294.11;1410038;102;21145;-57
2022/09/01 08:37:12;;;;;;;5.20;3.45;;;;;;;29.65;40.58;101289.33;1409859;102;21152;-57
2022/09/01 08:39:41;;;;;;;6.28;3.52;;;;;;;29.69;40.82;101289.40;1469110;94;21232;-57
2022/09/01 08:42:39;;;;;;;4.22;3.33;;;;;;;29.73;40.46;101293.52;1534861;92;21125;-57
2022/09/01 08:45:37;;;;;;;6.17;3.75;;;;;;;29.76;40.33;101283.83;1484673;95;21162;-56
2022/09/01 08:48:17;;;;;;;5.20;3.60;;;;;;;29.82;40.79;101288.61;1507542;93;21153;-57
2022/09/01 08:50:46;;;;;;;6.17;3.62;;;;;;;29.84;40.63;101289.34;1464658;95;21089;-57
2022/09/01 08:53:26;;;;;;;6.58;3.67;;;;;;;29.88;40.56;101285.38;1512298;93;21086;-57
2022/09/01 08:55:57;;;;;;;3.62;3.33;;;;;;;29.94;40.56;101298.70;1493775;95;21097;-57
2022/09/01 08:58:23;;;;;;;8.30;4.10;;;;;;;29.95;40.55;101281.11;1542205;92;21124;-57
2022/09/01 09:01:21;;;;;;;4.17;3.67;;;;;;;29.99;40.60;101279.83;1512290;93;21384;-57
2022/09/01 09:04:02;;;;;;;5.20;3.80;;;;;;;30.05;40.40;101288.64;1540560;92;21585;-57
2022/09/01 09:06:38;;;;;;;4.62;3.22;;;;;;;30.09;40.22;101280.65;1542216;92;21105;-57
2022/09/01 09:09:07;;;;;;;4.95;3.40;;;;;;;30.15;39.79;101285.95;1506683;94;21192;-57
2022/09/01 09:12:09;;;;;;;7.40;4.25;;;;;;;30.20;39.62;101285.00;1476634;96;21095;-57
2022/09/01 09:14:39;;;;;;;;;;;;;;;30.23;39.67;101273.46;1478785;96;21163;-57
2022/09/01 09:17:06;;;;;;;5.87;3.40;;;;;;;30.27;39.63;101276.23;1467965;96;20122;-57
2022/09/01 09:19:42;;;;;;;3.80;3.37;;;;;;;30.32;39.34;101279.33;1458026;97;21167;-57
2022/09/01 09:22:15;;;;;;;5.37;3.47;;;;;;;30.34;39.63;101274.66;1487940;96;21193;-57
2022/09/01 09:24:54;;;;;;;4.78;3.35;;;;;;;30.40;39.85;101282.61;1491979;96;21118;-57
2022/09/01 09:27:28;;;;;;;7.12;3.52;;;;;;;30.46;39.46;101275.30;1483464;93;21602;-57
2022/09/01 09:29:59;;;;;;;4.50;3.80;;;;;;;30.52;39.68;101278.25;1457508;98;21182;-57
2022/09/01 09:33:03;;;;;;;4.15;3.58;;;;;;;30.59;39.42;101271.78;1425937;99;21119;-57
2022/09/01 09:35:39;;;;;;;3.98;2.92;;;;;;;30.66;39.38;101278.76;1427951;99;21154;-57
2022/09/01 09:38:31;;;;;;;5.37;3.30;;;;;;;30.74;39.23;101284.22;1428065;99;21115;-57
2022/09/01 09:41:19;;;;;;;5.22;3.10;;;;;;;30.81;38.89;101277.27;1384680;103;21157;-57
2022/09/01 09:44:03;;;;;;;3.22;2.92;;;;;;;30.87;38.93;101283.41;1378033;103;21085;-55
2022/09/01 09:46:35;;;;;;;5.92;3.08;;;;;;;30.94;39.04;101284.48;1383666;100;21193;-55
2022/09/01 09:49:29;;;;;;;3.42;3.12;;;;;;;31.01;38.83;101286.92;1430192;100;21153;-55
2022/09/01 09:52:04;;;;;;;6.05;3.33;;;;;;;31.09;38.17;101292.38;1439259;99;21652;-55
2022/09/01 09:54:32;;;;;;;6.05;3.22;;;;;;;31.14;37.91;101292.78;1411467;101;21205;-55
2022/09/01 09:57:15;;;;;;;3.55;3.25;;;;;;;31.19;37.80;101288.63;1410323;101;21141;-55
2022/09/01 09:59:55;;;;;;;5.22;3.33;;;;;;;31.23;38.01;101294.53;1414474;101;21161;-55
2022/09/01 10:02:32;;;;;;;3.83;3.27;;;;;;;31.27;37.45;101295.91;1380669;102;21182;-55
2022/09/01 10:05:47;;;;;;;3.33;3.00;;;;;;;31.31;37.29;101291.92;1415386;100;21122;-55
2022/09/01 10:08:43;;;;;;;4.97;3.33;;;;;;;31.35;37.22;101294.64;1427227;99;21212;-55
2022/09/01 10:11:07;;;;;;;5.95;3.10;;;;;;;31.38;37.30;101293.50;1424282;99;21597;-55
2022/09/01 10:13:35;;;;;;;3.60;3.22;;;;;;;31.39;36.92;101294.72;1408345;100;21137;-55
2022/09/01 10:16:06;;;;;;;4.08;3.05;;;;;;;31.36;36.90;101297.70;1424662;99;21178;-55
2022/09/01 10:18:39;;;;;;;5.60;3.17;;;;;;;31.35;36.97;101304.06;1428511;99;21184;-55
2022/09/01 10:21:14;;;;;;;4.70;3.30;;;;;;;31.33;36.83;101301.53;1434962;99;21146;-55
2022/09/01 10:23:42;;;;;;;4.12;3.42;;;;;;;31.30;36.88;101299.14;1422623;99;21705;-55
2022/09/01 10:26:14;;;;;;;5.85;3.42;;;;;;;31.28;37.05;101302.48;1440318;96;21169;-55
2022/09/01 10:28:55;;;;;;;5.95;3.30;;;;;;;31.26;36.63;101300.44;1464018;97;21225;-55
2022/09/01 10:31:22;;;;;;;;;;;;;;;31.25;36.66;101300.61;1401927;102;21188;-55
2022/09/01 10:33:49;;;;;;;5.42;3.08;;;;;;;31.26;36.80;101300.97;1409052;102;20555;-55
2022/09/01 10:36:16;;;;;;;4.72;3.30;;;;;;;31.29;37.17;101303.33;1409171;100;21164;-55
2022/09/01 10:38:43;;;;;;;7.62;3.80;;;;;;;31.32;36.84;101307.08;1414056;98;21111;-55
2022/09/01 10:41:14;;;;;;;4.72;3.65;;;;;;;31.34;36.89;101301.04;1458094;98;21117;-55
2022/09/01 10:43:48;;;;;;;3.92;3.52;;;;;;;31.37;36.54;101310.12;1532308;92;21152;-55
2022/09/01 10:46:26;;;;;;;4.92;3.45;;;;;;;31.39;35.97;101312.20;1537895;92;21087;-56
2022/09/01 10:48:55;;;;;;;5.28;3.42;;;;;;;31.42;35.62;101306.53;1537689;92;21119;-55
2022/09/01 10:51:27;;;;;;;3.83;3.10;;;;;;;31.47;35.52;101305.55;1537777;93;21551;-55
2022/09/01 10:53:56;;;;;;;5.35;3.47;;;;;;;31.49;34.82;101306.23;1537821;93;21145;-55
2022/09/01 10:56:46;;;;;;;4.40;3.20;;;;;;;31.52;34.83;101299.70;1537648;93;21078;-55
2022/09/01 10:59:29;;;;;;;4.62;3.30;;;;;;;31.55;34.40;101300.23;1515440;94;21077;-56
2022/09/01 11:02:14;;;;;;;5.33;2.75;;;;;;;31.58;34.28;101299.94;1514410;95;21655;-55
2022/09/01 11:04:49;;;;;;;2.37;2.02;;;;;;;31.59;33.43;101307.03;1514874;93;21080;-55
2022/09/01 11:07:30;;;;;;;3.83;2.75;;;;;;;31.59;31.92;101304.33;1514558;93;21188;-55
2022/09/01 11:10:12;;;;;;;5.17;2.85;;;;;;;31.60;31.69;101300.63;1448308;97;21162;-55
2022/09/01 11:12:45;;;;;;;;;;;;;;;31.60;30.84;101303.31;1421504;101;21177;-55
2022/09/01 11:15:20;;;;;;;3.80;2.90;;;;;;;31.60;31.23;101299.28;1400950;102;20200;-55
2022/09/01 11:17:54;;;;;;;4.12;2.80;;;;;;;31.59;30.48;101297.61;1414234;100;21634;-55
2022/09/01 11:20:34;;;;;;;4.70;2.80;;;;;;;31.57;30.69;101299.61;1418142;100;21068;-55
2022/09/01 11:23:12;;;;;;;4.90;2.98;;;;;;;31.56;30.00;101303.28;1413758;100;21177;-55
2022/09/01 11:26:01;;;;;;;3.30;2.98;;;;;;;31.55;28.87;101300.23;1427397;98;21099;-55
2022/09/01 11:28:35;;;;;;;3.75;3.45;;;;;;;31.54;29.21;101297.22;1459902;95;21162;-55
2022/09/01 11:31:17;;;;;;;3.72;3.42;;;;;;;31.54;29.41;101291.84;1474029;97;21109;-55
2022/09/01 11:33:57;;;;;;;;;;;;;;;31.55;28.43;101288.66;1473570;97;21186;-55
2022/09/01 11:36:53;;;;;;;3.75;3.40;;;;;;;31.56;28.98;101285.80;1473997;96;20204;-56
2022/09/01 11:39:31;;;;;;;5.45;3.27;;;;;;;31.55;29.63;101286.78;1469305;96;21119;-55
2022/09/01 11:42:13;;;;;;;6.37;3.37;;;;;;;31.57;29.25;101284.81;1435801;99;21140;-56
2022/09/01 11:45:00;;;;;;;5.47;3.40;;;;;;;31.58;29.56;101278.91;1420863;100;21109;-55
2022/09/01 11:47:38;;;;;;;3.92;3.62;;;;;;;31.59;29.36;101274.74;1438630;98;21164;-56
2022/09/01 11:50:26;;;;;;;3.67;3.00;;;;;;;31.63;29.06;101281.50;1419466;100;21137;-55
2022/09/01 11:53:05;;;;;;;3.47;3.17;;;;;;;31.66;28.89;101278.97;1448373;98;21117;-55
2022/09/01 11:55:41;;;;;;;3.77;3.12;;;;;;;31.68;29.15;101276.48;1479923;96;21110;-55
2022/09/01 11:58:32;;;;;;;3.27;2.98;;;;;;;31.70;29.61;101282.55;1462594;97;21157;-55
2022/09/01 12:01:34;;;;;;;3.62;3.33;;;;;;;31.71;29.02;101278.02;1431374;99;21600;-55